sensor_id;sensor_type;location;lat;lon;timestamp;pressure;altitude;pressure_sealevel;temperature;humidity
71195;BME280;58908;51.426;7.714;2022-09-01T00:02:25;100277.56;;;14.66;72.54
71195;BME280;58908;51.426;7.714;2022-09-01T00:04:53;100271.06;;;14.57;73.28
71195;BME280;58908;51.426;7.714;2022-09-01T00:07:22;100273.72;;;14.57;72.92
71195;BME280;58908;51.426;7.714;2022-09-01T00:09:47;100269.56;;;14.53;73.12
71195;BME280;58908;51.426;7.714;2022-09-01T00:12:13;100277.19;;;14.45;73.55
71195;BME280;58908;51.426;7.714;2022-09-01T00:14:39;100274.06;;;14.39;74.04
71195;BME280;58908;51.426;7.714;2022-09-01T00:17:06;100268.09;;;14.36;73.83
71195;BME280;58908;51.426;7.714;2022-09-01T00:19:31;100278.56;;;14.25;74.73
71195;BME280;58908;51.426;7.714;2022-09-01T00:21:57;100281.69;;;14.17;74.74
71195;BME280;58908;51.426;7.714;2022-09-01T00:24:23;100281.88;;;14.14;74.94
71195;BME280;58908;51.426;7.714;2022-09-01T00:26:50;100279.50;;;14.10;74.87
71195;BME280;58908;51.426;7.714;2022-09-01T00:29:15;100276.09;;;14.08;75.16
71195;BME280;58908;51.426;7.714;2022-09-01T00:31:40;100279.03;;;14.03;75.22
71195;BME280;58908;51.426;7.714;2022-09-01T00:34:06;100281.97;;;13.99;75.36
71195;BME280;58908;51.426;7.714;2022-09-01T00:36:31;100280.63;;;13.92;75.71
71195;BME280;58908;51.426;7.714;2022-09-01T00:38:56;100285.19;;;13.76;76.98
71195;BME280;58908;51.426;7.714;2022-09-01T00:41:23;100288.09;;;13.43;77.39
71195;BME280;58908;51.426;7.714;2022-09-01T00:43:53;100281.00;;;13.30;77.68
71195;BME280;58908;51.426;7.714;2022-09-01T00:46:21;100280.84;;;13.17;78.47
71195;BME280;58908;51.426;7.714;2022-09-01T00:48:47;100285.41;;;13.15;78.24
71195;BME280;58908;51.426;7.714;2022-09-01T00:51:15;100279.06;;;13.18;78.16
71195;BME280;58908;51.426;7.714;2022-09-01T00:53:41;100285.75;;;13.09;79.27
71195;BME280;58908;51.426;7.714;2022-09-01T00:56:07;100282.97;;;12.97;79.85
71195;BME280;58908;51.426;7.714;2022-09-01T00:58:33;100281.66;;;12.88;80.80
71195;BME280;58908;51.426;7.714;2022-09-01T01:00:59;100273.34;;;12.80;80.96
71195;BME280;58908;51.426;7.714;2022-09-01T01:03:25;100278.03;;;12.75;81.16
71195;BME280;58908;51.426;7.714;2022-09-01T01:05:52;100274.81;;;12.70;81.96
71195;BME280;58908;51.426;7.714;2022-09-01T01:08:24;100281.31;;;12.65;82.32
71195;BME280;58908;51.426;7.714;2022-09-01T01:10:57;100279.50;;;12.65;82.31
71195;BME280;58908;51.426;7.714;2022-09-01T01:13:23;100276.69;;;12.68;82.12
71195;BME280;58908;51.426;7.714;2022-09-01T01:15:51;100266.56;;;12.61;82.49
71195;BME280;58908;51.426;7.714;2022-09-01T01:18:16;100273.31;;;12.51;83.31
71195;BME280;58908;51.426;7.714;2022-09-01T01:20:41;100276.09;;;12.48;83.82
71195;BME280;58908;51.426;7.714;2022-09-01T01:25:56;100269.09;;;12.62;83.10
71195;BME280;58908;51.426;7.714;2022-09-01T01:28:23;100266.78;;;12.72;82.48
71195;BME280;58908;51.426;7.714;2022-09-01T01:30:52;100268.13;;;12.79;81.75
71195;BME280;58908;51.426;7.714;2022-09-01T01:33:19;100268.88;;;12.81;81.77
71195;BME280;58908;51.426;7.714;2022-09-01T01:35:46;100265.78;;;12.88;81.82
71195;BME280;58908;51.426;7.714;2022-09-01T01:38:12;100270.50;;;12.83;81.36
71195;BME280;58908;51.426;7.714;2022-09-01T01:40:38;100269.47;;;12.86;81.55
71195;BME280;58908;51.426;7.714;2022-09-01T01:43:04;100278.19;;;12.88;81.48
71195;BME280;58908;51.426;7.714;2022-09-01T01:45:29;100278.91;;;12.76;81.53
71195;BME280;58908;51.426;7.714;2022-09-01T01:47:55;100283.94;;;12.65;81.77
71195;BME280;58908;51.426;7.714;2022-09-01T01:50:22;100283.88;;;12.51;81.50
71195;BME280;58908;51.426;7.714;2022-09-01T01:52:47;100282.09;;;12.36;82.08
71195;BME280;58908;51.426;7.714;2022-09-01T01:55:13;100283.13;;;12.18;83.44
71195;BME280;58908;51.426;7.714;2022-09-01T01:57:43;100293.47;;;12.22;83.85
71195;BME280;58908;51.426;7.714;2022-09-01T02:00:13;100290.25;;;12.16;83.99
71195;BME280;58908;51.426;7.714;2022-09-01T02:02:43;100286.09;;;12.12;84.46
71195;BME280;58908;51.426;7.714;2022-09-01T02:05:11;100291.38;;;11.96;84.92
71195;BME280;58908;51.426;7.714;2022-09-01T02:07:37;100289.91;;;11.91;84.54
71195;BME280;58908;51.426;7.714;2022-09-01T02:10:07;100286.03;;;11.81;85.08
71195;BME280;58908;51.426;7.714;2022-09-01T02:12:32;100289.44;;;11.68;86.42
71195;BME280;58908;51.426;7.714;2022-09-01T02:14:58;100296.75;;;11.63;86.68
71195;BME280;58908;51.426;7.714;2022-09-01T02:17:24;100296.34;;;11.53;87.19
71195;BME280;58908;51.426;7.714;2022-09-01T02:19:51;100296.53;;;11.50;87.51
71195;BME280;58908;51.426;7.714;2022-09-01T02:22:21;100293.19;;;11.47;88.03
71195;BME280;58908;51.426;7.714;2022-09-01T02:24:46;100290.59;;;11.45;87.93
71195;BME280;58908;51.426;7.714;2022-09-01T02:27:13;100300.16;;;11.48;88.17
71195;BME280;58908;51.426;7.714;2022-09-01T02:29:39;100294.25;;;11.43;88.39
71195;BME280;58908;51.426;7.714;2022-09-01T02:32:04;100289.72;;;11.29;89.02
71195;BME280;58908;51.426;7.714;2022-09-01T02:34:30;100295.22;;;11.25;89.23
71195;BME280;58908;51.426;7.714;2022-09-01T02:36:56;100292.72;;;11.22;88.92
71195;BME280;58908;51.426;7.714;2022-09-01T02:39:22;100283.03;;;11.22;89.72
71195;BME280;58908;51.426;7.714;2022-09-01T02:41:48;100280.22;;;11.25;88.71
71195;BME280;58908;51.426;7.714;2022-09-01T02:44:14;100282.16;;;11.22;89.41
71195;BME280;58908;51.426;7.714;2022-09-01T02:46:43;100280.97;;;11.27;89.64
71195;BME280;58908;51.426;7.714;2022-09-01T02:49:09;100276.63;;;11.26;88.62
71195;BME280;58908;51.426;7.714;2022-09-01T02:51:39;100274.94;;;11.25;89.36
71195;BME280;58908;51.426;7.714;2022-09-01T02:54:05;100274.34;;;11.20;89.90
71195;BME280;58908;51.426;7.714;2022-09-01T02:56:30;100277.16;;;11.33;89.35
71195;BME280;58908;51.426;7.714;2022-09-01T02:58:55;100275.69;;;11.44;88.54
71195;BME280;58908;51.426;7.714;2022-09-01T03:01:22;100278.41;;;11.43;88.15
71195;BME280;58908;51.426;7.714;2022-09-01T03:03:49;100283.09;;;11.38;88.11
71195;BME280;58908;51.426;7.714;2022-09-01T03:06:14;100280.44;;;11.38;88.54
71195;BME280;58908;51.426;7.714;2022-09-01T03:08:42;100284.72;;;11.23;89.41
71195;BME280;58908;51.426;7.714;2022-09-01T03:11:07;100276.63;;;11.26;88.54
71195;BME280;58908;51.426;7.714;2022-09-01T03:13:35;100282.84;;;11.42;89.66
71195;BME280;58908;51.426;7.714;2022-09-01T03:16:00;100282.94;;;11.58;89.38
71195;BME280;58908;51.426;7.714;2022-09-01T03:18:25;100281.28;;;11.55;88.79
71195;BME280;58908;51.426;7.714;2022-09-01T03:20:50;100281.69;;;11.80;87.92
71195;BME280;58908;51.426;7.714;2022-09-01T03:23:17;100287.31;;;11.74;88.40
71195;BME280;58908;51.426;7.714;2022-09-01T03:25:43;100276.78;;;11.90;87.83
71195;BME280;58908;51.426;7.714;2022-09-01T03:28:09;100292.38;;;11.79;87.88
71195;BME280;58908;51.426;7.714;2022-09-01T03:30:36;100291.50;;;11.78;87.94
71195;BME280;58908;51.426;7.714;2022-09-01T03:33:05;100287.03;;;11.63;88.82
71195;BME280;58908;51.426;7.714;2022-09-01T03:35:31;100289.16;;;11.57;88.65
71195;BME280;58908;51.426;7.714;2022-09-01T03:37:58;100285.03;;;11.51;88.97
71195;BME280;58908;51.426;7.714;2022-09-01T03:40:24;100281.16;;;11.41;88.75
71195;BME280;58908;51.426;7.714;2022-09-01T03:42:50;100288.66;;;11.32;89.63
71195;BME280;58908;51.426;7.714;2022-09-01T03:45:17;100271.34;;;11.26;89.95
71195;BME280;58908;51.426;7.714;2022-09-01T03:47:44;100273.69;;;11.15;90.34
71195;BME280;58908;51.426;7.714;2022-09-01T03:50:12;100282.41;;;11.17;90.51
71195;BME280;58908;51.426;7.714;2022-09-01T03:52:44;100277.50;;;11.27;89.66
71195;BME280;58908;51.426;7.714;2022-09-01T03:55:09;100286.53;;;11.06;90.52
71195;BME280;58908;51.426;7.714;2022-09-01T03:57:34;100287.91;;;10.79;91.68
71195;BME280;58908;51.426;7.714;2022-09-01T04:00:06;100296.66;;;10.79;92.28
71195;BME280;58908;51.426;7.714;2022-09-01T04:02:37;100302.66;;;10.83;92.34
71195;BME280;58908;51.426;7.714;2022-09-01T04:05:02;100295.00;;;10.95;92.29
71195;BME280;58908;51.426;7.714;2022-09-01T04:07:27;100296.16;;;11.07;91.99
71195;BME280;58908;51.426;7.714;2022-09-01T04:09:54;100294.75;;;11.17;91.28
71195;BME280;58908;51.426;7.714;2022-09-01T04:12:19;100288.78;;;11.30;90.25
71195;BME280;58908;51.426;7.714;2022-09-01T04:14:44;100286.13;;;11.30;90.65
71195;BME280;58908;51.426;7.714;2022-09-01T04:17:11;100289.00;;;11.26;90.65
71195;BME280;58908;51.426;7.714;2022-09-01T04:19:55;100295.28;;;11.23;90.37
71195;BME280;58908;51.426;7.714;2022-09-01T04:22:21;100287.13;;;11.11;90.90
71195;BME280;58908;51.426;7.714;2022-09-01T04:24:47;100285.41;;;11.10;91.35
71195;BME280;58908;51.426;7.714;2022-09-01T04:27:13;100297.69;;;11.11;90.70
71195;BME280;58908;51.426;7.714;2022-09-01T04:29:38;100291.25;;;11.16;90.16
71195;BME280;58908;51.426;7.714;2022-09-01T04:32:07;100281.84;;;11.11;90.40
71195;BME280;58908;51.426;7.714;2022-09-01T04:34:36;100288.06;;;11.10;90.45
71195;BME280;58908;51.426;7.714;2022-09-01T04:37:06;100283.19;;;11.02;90.38
71195;BME280;58908;51.426;7.714;2022-09-01T04:39:32;100285.59;;;10.90;90.83
71195;BME280;58908;51.426;7.714;2022-09-01T04:41:57;100292.47;;;10.92;91.29
71195;BME280;58908;51.426;7.714;2022-09-01T04:44:22;100289.53;;;10.81;91.82
71195;BME280;58908;51.426;7.714;2022-09-01T04:46:49;100300.25;;;10.78;91.97
71195;BME280;58908;51.426;7.714;2022-09-01T04:49:15;100291.78;;;10.72;92.61
71195;BME280;58908;51.426;7.714;2022-09-01T04:51:44;100298.56;;;10.94;92.01
71195;BME280;58908;51.426;7.714;2022-09-01T04:54:11;100286.44;;;11.07;91.55
71195;BME280;58908;51.426;7.714;2022-09-01T04:56:38;100286.44;;;11.07;90.10
71195;BME280;58908;51.426;7.714;2022-09-01T04:59:04;100282.16;;;10.88;90.99
71195;BME280;58908;51.426;7.714;2022-09-01T05:01:31;100287.03;;;10.78;90.87
71195;BME280;58908;51.426;7.714;2022-09-01T05:04:07;100287.38;;;10.54;92.65
71195;BME280;58908;51.426;7.714;2022-09-01T05:06:32;100278.19;;;10.62;92.14
71195;BME280;58908;51.426;7.714;2022-09-01T05:08:58;100295.63;;;10.65;91.77
71195;BME280;58908;51.426;7.714;2022-09-01T05:11:23;100288.81;;;10.61;92.25
71195;BME280;58908;51.426;7.714;2022-09-01T05:13:49;100285.72;;;10.70;91.51
71195;BME280;58908;51.426;7.714;2022-09-01T05:16:19;100290.00;;;10.72;91.04
71195;BME280;58908;51.426;7.714;2022-09-01T05:18:46;100292.63;;;10.72;91.31
71195;BME280;58908;51.426;7.714;2022-09-01T05:21:13;100292.31;;;10.61;91.90
71195;BME280;58908;51.426;7.714;2022-09-01T05:23:40;100297.59;;;10.61;92.47
71195;BME280;58908;51.426;7.714;2022-09-01T05:26:12;100292.56;;;11.08;90.81
71195;BME280;58908;51.426;7.714;2022-09-01T05:28:41;100283.16;;;11.36;89.19
71195;BME280;58908;51.426;7.714;2022-09-01T05:31:07;100286.09;;;11.64;87.50
71195;BME280;58908;51.426;7.714;2022-09-01T05:33:32;100282.84;;;11.92;85.67
71195;BME280;58908;51.426;7.714;2022-09-01T05:35:58;100289.59;;;11.97;85.27
71195;BME280;58908;51.426;7.714;2022-09-01T05:38:25;100282.88;;;12.07;84.72
71195;BME280;58908;51.426;7.714;2022-09-01T05:40:57;100284.72;;;12.20;84.99
71195;BME280;58908;51.426;7.714;2022-09-01T05:43:22;100280.38;;;12.35;83.19
71195;BME280;58908;51.426;7.714;2022-09-01T05:45:47;100287.88;;;12.42;83.71
71195;BME280;58908;51.426;7.714;2022-09-01T05:48:13;100293.03;;;12.45;84.04
71195;BME280;58908;51.426;7.714;2022-09-01T05:50:44;100293.69;;;12.49;84.14
71195;BME280;58908;51.426;7.714;2022-09-01T05:53:11;100293.44;;;12.53;83.51
71195;BME280;58908;51.426;7.714;2022-09-01T05:55:44;100288.13;;;12.69;82.13
71195;BME280;58908;51.426;7.714;2022-09-01T05:58:10;100291.50;;;12.86;81.48
71195;BME280;58908;51.426;7.714;2022-09-01T06:00:42;100293.03;;;13.06;80.52
71195;BME280;58908;51.426;7.714;2022-09-01T06:03:09;100289.47;;;13.21;79.79
71195;BME280;58908;51.426;7.714;2022-09-01T06:05:35;100292.81;;;13.38;78.70
71195;BME280;58908;51.426;7.714;2022-09-01T06:08:00;100296.34;;;13.53;78.59
71195;BME280;58908;51.426;7.714;2022-09-01T06:10:25;100295.97;;;13.59;79.28
71195;BME280;58908;51.426;7.714;2022-09-01T06:12:52;100297.50;;;13.77;77.17
71195;BME280;58908;51.426;7.714;2022-09-01T06:15:17;100296.19;;;13.98;76.33
71195;BME280;58908;51.426;7.714;2022-09-01T06:17:44;100293.06;;;14.19;74.96
71195;BME280;58908;51.426;7.714;2022-09-01T06:20:10;100284.63;;;14.67;72.37
71195;BME280;58908;51.426;7.714;2022-09-01T06:22:35;100283.97;;;15.91;67.25
71195;BME280;58908;51.426;7.714;2022-09-01T06:25:00;100280.47;;;17.33;61.11
71195;BME280;58908;51.426;7.714;2022-09-01T06:27:26;100285.06;;;17.31;61.62
71195;BME280;58908;51.426;7.714;2022-09-01T06:29:51;100287.88;;;17.75;59.62
71195;BME280;58908;51.426;7.714;2022-09-01T06:32:18;100280.38;;;18.77;57.92
71195;BME280;58908;51.426;7.714;2022-09-01T06:34:44;100282.19;;;18.45;56.69
71195;BME280;58908;51.426;7.714;2022-09-01T06:37:15;100282.94;;;19.62;54.36
71195;BME280;58908;51.426;7.714;2022-09-01T06:39:41;100278.44;;;19.92;52.87
71195;BME280;58908;51.426;7.714;2022-09-01T06:42:07;100280.00;;;20.64;51.04
71195;BME280;58908;51.426;7.714;2022-09-01T06:44:35;100277.47;;;20.14;52.53
71195;BME280;58908;51.426;7.714;2022-09-01T06:47:00;100286.97;;;18.73;56.48
71195;BME280;58908;51.426;7.714;2022-09-01T06:49:25;100277.41;;;19.84;53.74
71195;BME280;58908;51.426;7.714;2022-09-01T06:52:00;100283.16;;;19.50;54.19
71195;BME280;58908;51.426;7.714;2022-09-01T06:54:27;100281.44;;;19.48;54.04
71195;BME280;58908;51.426;7.714;2022-09-01T06:56:53;100290.06;;;20.23;52.34
71195;BME280;58908;51.426;7.714;2022-09-01T06:59:19;100285.38;;;20.64;51.88
71195;BME280;58908;51.426;7.714;2022-09-01T07:01:44;100290.22;;;19.80;53.44
71195;BME280;58908;51.426;7.714;2022-09-01T07:04:12;100288.16;;;19.93;52.85
71195;BME280;58908;51.426;7.714;2022-09-01T07:06:38;100293.53;;;20.44;51.33
71195;BME280;58908;51.426;7.714;2022-09-01T07:09:04;100293.38;;;19.85;52.33
71195;BME280;58908;51.426;7.714;2022-09-01T07:11:30;100292.66;;;20.53;51.20
71195;BME280;58908;51.426;7.714;2022-09-01T07:13:58;100295.41;;;20.62;49.93
71195;BME280;58908;51.426;7.714;2022-09-01T07:16:26;100287.25;;;21.49;48.07
71195;BME280;58908;51.426;7.714;2022-09-01T07:18:52;100285.41;;;21.78;46.24
71195;BME280;58908;51.426;7.714;2022-09-01T07:21:18;100297.63;;;20.18;50.31
71195;BME280;58908;51.426;7.714;2022-09-01T07:23:44;100286.97;;;21.62;47.36
71195;BME280;58908;51.426;7.714;2022-09-01T07:26:10;100289.38;;;21.65;46.13
71195;BME280;58908;51.426;7.714;2022-09-01T07:28:36;100289.09;;;22.77;45.00
71195;BME280;58908;51.426;7.714;2022-09-01T07:31:02;100289.31;;;21.93;44.88
71195;BME280;58908;51.426;7.714;2022-09-01T07:33:32;100290.19;;;21.94;45.26
71195;BME280;58908;51.426;7.714;2022-09-01T07:35:57;100290.75;;;22.33;44.98
71195;BME280;58908;51.426;7.714;2022-09-01T07:38:23;100288.53;;;21.45;45.83
71195;BME280;58908;51.426;7.714;2022-09-01T07:40:48;100284.72;;;22.76;42.86
71195;BME280;58908;51.426;7.714;2022-09-01T07:43:22;100286.06;;;22.35;43.81
71195;BME280;58908;51.426;7.714;2022-09-01T07:45:49;100286.81;;;22.18;44.22
71195;BME280;58908;51.426;7.714;2022-09-01T07:48:16;100283.75;;;22.04;44.07
71195;BME280;58908;51.426;7.714;2022-09-01T07:50:45;100281.72;;;21.79;45.01
71195;BME280;58908;51.426;7.714;2022-09-01T07:53:11;100280.38;;;22.12;42.66
71195;BME280;58908;51.426;7.714;2022-09-01T07:55:39;100281.25;;;21.93;42.69
71195;BME280;58908;51.426;7.714;2022-09-01T07:58:05;100279.63;;;22.09;42.14
71195;BME280;58908;51.426;7.714;2022-09-01T08:00:30;100274.63;;;23.22;40.64
71195;BME280;58908;51.426;7.714;2022-09-01T08:02:57;100277.75;;;22.56;44.02
71195;BME280;58908;51.426;7.714;2022-09-01T08:05:22;100281.44;;;21.82;44.57
71195;BME280;58908;51.426;7.714;2022-09-01T08:07:50;100276.34;;;22.96;43.01
71195;BME280;58908;51.426;7.714;2022-09-01T08:10:15;100273.25;;;22.74;42.72
71195;BME280;58908;51.426;7.714;2022-09-01T08:12:41;100269.53;;;24.05;40.71
71195;BME280;58908;51.426;7.714;2022-09-01T08:15:07;100272.38;;;23.00;44.20
71195;BME280;58908;51.426;7.714;2022-09-01T08:17:32;100271.66;;;23.51;42.18
71195;BME280;58908;51.426;7.714;2022-09-01T08:19:57;100273.88;;;23.38;42.76
71195;BME280;58908;51.426;7.714;2022-09-01T08:22:22;100272.63;;;22.80;44.46
71195;BME280;58908;51.426;7.714;2022-09-01T08:24:49;100275.16;;;23.69;42.15
71195;BME280;58908;51.426;7.714;2022-09-01T08:27:14;100279.41;;;24.22;40.06
71195;BME280;58908;51.426;7.714;2022-09-01T08:29:40;100276.31;;;22.79;43.19
71195;BME280;58908;51.426;7.714;2022-09-01T08:32:05;100275.97;;;23.44;41.46
71195;BME280;58908;51.426;7.714;2022-09-01T08:34:31;100277.56;;;23.02;41.89
71195;BME280;58908;51.426;7.714;2022-09-01T08:36:56;100281.81;;;23.39;41.64
71195;BME280;58908;51.426;7.714;2022-09-01T08:39:21;100281.28;;;23.01;42.04
71195;BME280;58908;51.426;7.714;2022-09-01T08:44:21;100273.75;;;23.39;42.11
71195;BME280;58908;51.426;7.714;2022-09-01T08:46:53;100272.50;;;22.99;42.41
71195;BME280;58908;51.426;7.714;2022-09-01T08:49:21;100269.28;;;23.30;41.74
71195;BME280;58908;51.426;7.714;2022-09-01T08:51:57;100262.94;;;24.82;40.00
71195;BME280;58908;51.426;7.714;2022-09-01T08:56:55;100272.88;;;22.06;45.25
71195;BME280;58908;51.426;7.714;2022-09-01T08:59:21;100259.03;;;23.51;42.20
71195;BME280;58908;51.426;7.714;2022-09-01T09:02:11;100263.75;;;22.16;43.72
71195;BME280;58908;51.426;7.714;2022-09-01T09:04:53;100264.81;;;22.86;44.19
71195;BME280;58908;51.426;7.714;2022-09-01T09:09:53;100269.44;;;21.77;46.53
71195;BME280;58908;51.426;7.714;2022-09-01T09:12:33;100262.03;;;23.91;41.72
71195;BME280;58908;51.426;7.714;2022-09-01T09:17:29;100270.31;;;21.68;44.91
71195;BME280;58908;51.426;7.714;2022-09-01T09:19:58;100266.81;;;20.91;45.34
71195;BME280;58908;51.426;7.714;2022-09-01T09:22:24;100270.50;;;21.28;45.98
71195;BME280;58908;51.426;7.714;2022-09-01T09:24:54;100269.94;;;21.25;45.64
71195;BME280;58908;51.426;7.714;2022-09-01T09:29:50;100265.88;;;22.22;44.68
71195;BME280;58908;51.426;7.714;2022-09-01T09:32:16;100247.53;;;23.67;42.23
71195;BME280;58908;51.426;7.714;2022-09-01T09:34:42;100250.63;;;23.80;41.96
71195;BME280;58908;51.426;7.714;2022-09-01T09:37:18;100245.50;;;23.43;41.88
71195;BME280;58908;51.426;7.714;2022-09-01T09:39:44;100252.13;;;22.25;45.11
71195;BME280;58908;51.426;7.714;2022-09-01T09:42:13;100249.53;;;21.51;46.70
71195;BME280;58908;51.426;7.714;2022-09-01T09:44:39;100250.78;;;21.56;47.03
71195;BME280;58908;51.426;7.714;2022-09-01T09:47:07;100250.19;;;21.81;45.24
71195;BME280;58908;51.426;7.714;2022-09-01T09:49:34;100239.88;;;22.67;41.44
71195;BME280;58908;51.426;7.714;2022-09-01T09:54:35;100230.91;;;23.28;41.19
71195;BME280;58908;51.426;7.714;2022-09-01T09:57:02;100218.56;;;24.85;38.99
71195;BME280;58908;51.426;7.714;2022-09-01T09:59:29;100198.50;;;24.22;38.09
71195;BME280;58908;51.426;7.714;2022-09-01T10:01:58;100230.13;;;22.12;41.67
71195;BME280;58908;51.426;7.714;2022-09-01T10:04:34;100230.03;;;21.49;43.45
71195;BME280;58908;51.426;7.714;2022-09-01T10:07:00;100229.69;;;22.88;40.34
71195;BME280;58908;51.426;7.714;2022-09-01T10:11:51;100219.44;;;22.03;41.91
71195;BME280;58908;51.426;7.714;2022-09-01T10:14:19;100215.47;;;22.33;42.96
71195;BME280;58908;51.426;7.714;2022-09-01T10:16:45;100208.06;;;22.62;39.99
71195;BME280;58908;51.426;7.714;2022-09-01T10:19:12;100207.59;;;22.49;40.94
71195;BME280;58908;51.426;7.714;2022-09-01T10:21:39;100211.41;;;21.93;42.33
71195;BME280;58908;51.426;7.714;2022-09-01T10:24:47;100207.19;;;21.91;42.98
71195;BME280;58908;51.426;7.714;2022-09-01T10:26:54;100198.31;;;21.81;42.92
71195;BME280;58908;51.426;7.714;2022-09-01T10:31:46;100203.09;;;22.67;40.21
71195;BME280;58908;51.426;7.714;2022-09-01T10:34:15;100193.06;;;23.30;39.90
71195;BME280;58908;51.426;7.714;2022-09-01T10:36:42;100186.25;;;23.69;37.67
71195;BME280;58908;51.426;7.714;2022-09-01T10:39:12;100181.00;;;23.93;37.01
71195;BME280;58908;51.426;7.714;2022-09-01T10:41:50;100183.31;;;23.11;38.50
71195;BME280;58908;51.426;7.714;2022-09-01T10:44:28;100190.41;;;23.63;38.26
71195;BME280;58908;51.426;7.714;2022-09-01T10:51:51;100182.63;;;22.39;41.06
71195;BME280;58908;51.426;7.714;2022-09-01T10:54:48;100179.31;;;23.15;40.05
71195;BME280;58908;51.426;7.714;2022-09-01T10:59:45;100176.25;;;23.61;39.09
71195;BME280;58908;51.426;7.714;2022-09-01T11:02:12;100173.09;;;23.40;38.00
71195;BME280;58908;51.426;7.714;2022-09-01T11:15:02;100175.53;;;23.51;37.80
71195;BME280;58908;51.426;7.714;2022-09-01T11:17:31;100167.84;;;24.23;37.30
71195;BME280;58908;51.426;7.714;2022-09-01T11:22:42;100167.09;;;24.55;37.18
71195;BME280;58908;51.426;7.714;2022-09-01T11:30:21;100168.53;;;24.33;36.24
71195;BME280;58908;51.426;7.714;2022-09-01T11:32:48;100176.03;;;23.80;36.70
71195;BME280;58908;51.426;7.714;2022-09-01T11:35:18;100160.84;;;23.71;36.97
71195;BME280;58908;51.426;7.714;2022-09-01T11:37:48;100153.31;;;23.83;36.81
71195;BME280;58908;51.426;7.714;2022-09-01T11:40:18;100150.91;;;23.72;36.31
71195;BME280;58908;51.426;7.714;2022-09-01T11:42:45;100155.28;;;23.73;35.90
71195;BME280;58908;51.426;7.714;2022-09-01T11:45:13;100160.44;;;23.92;36.06
71195;BME280;58908;51.426;7.714;2022-09-01T11:47:41;100156.34;;;23.54;37.43
71195;BME280;58908;51.426;7.714;2022-09-01T11:52:39;100153.31;;;24.16;37.20
71195;BME280;58908;51.426;7.714;2022-09-01T11:55:05;100156.25;;;24.39;34.77
71195;BME280;58908;51.426;7.714;2022-09-01T11:57:35;100148.38;;;23.19;36.13
71195;BME280;58908;51.426;7.714;2022-09-01T12:00:03;100148.31;;;23.62;35.05
71195;BME280;58908;51.426;7.714;2022-09-01T12:02:31;100148.53;;;23.43;36.40
71195;BME280;58908;51.426;7.714;2022-09-01T12:04:57;100156.25;;;23.38;35.77
71195;BME280;58908;51.426;7.714;2022-09-01T12:07:27;100147.78;;;23.51;35.93
71195;BME280;58908;51.426;7.714;2022-09-01T12:09:54;100140.50;;;23.00;37.23
71195;BME280;58908;51.426;7.714;2022-09-01T12:14:54;100136.56;;;23.38;35.66
71195;BME280;58908;51.426;7.714;2022-09-01T12:17:19;100132.16;;;23.11;35.92
71195;BME280;58908;51.426;7.714;2022-09-01T12:19:44;100136.34;;;23.31;35.87
71195;BME280;58908;51.426;7.714;2022-09-01T12:22:14;100130.22;;;22.78;35.83
71195;BME280;58908;51.426;7.714;2022-09-01T12:24:43;100124.81;;;22.96;37.05
71195;BME280;58908;51.426;7.714;2022-09-01T12:27:08;100124.38;;;23.26;35.87
71195;BME280;58908;51.426;7.714;2022-09-01T12:29:34;100121.22;;;23.89;36.01
71195;BME280;58908;51.426;7.714;2022-09-01T12:32:01;100122.25;;;23.63;35.48
71195;BME280;58908;51.426;7.714;2022-09-01T12:37:05;100112.06;;;24.32;34.79
71195;BME280;58908;51.426;7.714;2022-09-01T12:39:38;100124.00;;;24.29;33.97
71195;BME280;58908;51.426;7.714;2022-09-01T12:44:30;100117.28;;;24.25;33.51
71195;BME280;58908;51.426;7.714;2022-09-01T12:46:57;100115.63;;;23.91;34.49
71195;BME280;58908;51.426;7.714;2022-09-01T12:49:24;100106.22;;;23.87;34.96
71195;BME280;58908;51.426;7.714;2022-09-01T12:54:33;100100.38;;;24.07;34.37
71195;BME280;58908;51.426;7.714;2022-09-01T12:56:58;100098.22;;;24.19;33.95
71195;BME280;58908;51.426;7.714;2022-09-01T12:59:24;100095.53;;;24.35;33.75
71195;BME280;58908;51.426;7.714;2022-09-01T13:01:50;100099.25;;;24.34;33.96
71195;BME280;58908;51.426;7.714;2022-09-01T13:06:43;100097.97;;;23.96;34.27
71195;BME280;58908;51.426;7.714;2022-09-01T13:09:09;100090.25;;;23.68;35.67
71195;BME280;58908;51.426;7.714;2022-09-01T13:11:34;100092.66;;;23.79;35.44
71195;BME280;58908;51.426;7.714;2022-09-01T13:13:59;100090.38;;;23.92;35.19
71195;BME280;58908;51.426;7.714;2022-09-01T13:16:25;100082.97;;;24.67;34.56
71195;BME280;58908;51.426;7.714;2022-09-01T13:18:50;100083.13;;;24.66;33.73
71195;BME280;58908;51.426;7.714;2022-09-01T13:21:15;100086.66;;;24.58;33.96
71195;BME280;58908;51.426;7.714;2022-09-01T13:23:40;100087.47;;;24.51;33.35
71195;BME280;58908;51.426;7.714;2022-09-01T13:26:06;100092.19;;;24.41;32.81
71195;BME280;58908;51.426;7.714;2022-09-01T13:28:31;100076.34;;;23.47;34.19
71195;BME280;58908;51.426;7.714;2022-09-01T13:30:57;100072.44;;;23.75;33.94
71195;BME280;58908;51.426;7.714;2022-09-01T13:33:23;100079.56;;;23.50;33.76
71195;BME280;58908;51.426;7.714;2022-09-01T13:35:49;100070.69;;;23.91;33.96
71195;BME280;58908;51.426;7.714;2022-09-01T13:38:14;100069.63;;;23.43;34.04
71195;BME280;58908;51.426;7.714;2022-09-01T13:40:40;100078.34;;;23.78;33.58
71195;BME280;58908;51.426;7.714;2022-09-01T13:43:06;100065.06;;;23.43;34.93
71195;BME280;58908;51.426;7.714;2022-09-01T13:45:32;100062.75;;;23.48;34.70
71195;BME280;58908;51.426;7.714;2022-09-01T13:47:57;100064.09;;;23.86;33.97
71195;BME280;58908;51.426;7.714;2022-09-01T13:50:23;100058.50;;;23.79;33.42
71195;BME280;58908;51.426;7.714;2022-09-01T13:52:49;100062.09;;;24.04;33.88
71195;BME280;58908;51.426;7.714;2022-09-01T13:55:19;100056.09;;;23.76;34.07